Time;durP1;ratioP1;P1;durP2;ratioP2;P2;SDS_P1;SDS_P2;PMS_P1;PMS_P2;Temp;Humidity;BMP_temperature;BMP_pressure;BME280_temperature;BME280_humidity;BME280_pressure;Samples;Min_cycle;Max_cycle;Signal;HPM_P1;HPM_P2
2023/01/24 00:00:48;;;;;;;10.88;7.93;;;3.70;99.90;;;;;;5052133;28;20297;-47
2023/01/24 00:03:15;;;;;;;13.18;9.27;;;3.80;99.90;;;;;;5051705;28;20301;-46
2023/01/24 00:05:45;;;;;;;11.23;8.07;;;3.80;99.90;;;;;;5051787;28;20174;-46
2023/01/24 00:08:12;;;;;;;15.93;9.70;;;3.80;99.90;;;;;;5051894;28;20170;-47
2023/01/24 00:10:38;;;;;;;12.55;8.80;;;3.80;99.90;;;;;;5051656;28;20169;-47
2023/01/24 00:13:05;;;;;;;13.00;8.80;;;3.90;99.90;;;;;;5052387;28;20170;-47
2023/01/24 00:15:31;;;;;;;10.77;7.60;;;3.80;99.90;;;;;;5051464;28;20185;-46
2023/01/24 00:17:57;;;;;;;12.88;8.65;;;3.90;99.90;;;;;;5051057;28;20206;-46
2023/01/24 00:20:23;;;;;;;12.55;9.00;;;3.90;99.90;;;;;;5051642;28;20198;-46
2023/01/24 00:22:48;;;;;;;13.60;9.10;;;3.80;99.90;;;;;;5051676;28;20171;-46
2023/01/24 00:25:14;;;;;;;11.25;8.68;;;3.70;99.90;;;;;;5051632;28;20687;-46
2023/01/24 00:27:40;;;;;;;11.80;8.85;;;3.70;99.90;;;;;;5063806;28;20208;-45
2023/01/24 00:30:05;;;;;;;12.50;8.57;;;3.80;99.90;;;;;;5071537;28;20640;-45
2023/01/24 00:32:32;;;;;;;12.95;8.63;;;3.80;99.90;;;;;;5071538;28;20696;-46
2023/01/24 00:34:58;;;;;;;10.95;8.55;;;3.80;99.90;;;;;;5071224;28;20626;-46
2023/01/24 00:37:24;;;;;;;10.88;7.90;;;3.80;99.90;;;;;;5070979;28;20169;-46
2023/01/24 00:39:50;;;;;;;12.52;8.32;;;3.80;99.90;;;;;;5071326;28;20608;-46
2023/01/24 00:42:15;;;;;;;14.13;9.15;;;3.80;99.90;;;;;;5070986;28;20240;-46
2023/01/24 00:44:41;;;;;;;13.13;9.07;;;3.80;99.90;;;;;;5069760;28;20183;-46
2023/01/24 00:47:06;;;;;;;12.35;8.82;;;3.80;99.90;;;;;;5070971;28;20170;-45
2023/01/24 00:49:32;;;;;;;13.43;9.40;;;3.80;99.90;;;;;;5071254;28;20252;-46
2023/01/24 00:51:57;;;;;;;13.25;8.77;;;3.80;99.90;;;;;;5070882;28;20166;-45
2023/01/24 00:54:23;;;;;;;11.82;8.75;;;3.80;99.90;;;;;;5070882;28;20173;-46
2023/01/24 00:56:48;;;;;;;10.75;7.70;;;3.80;99.90;;;;;;5061830;28;20753;-46
2023/01/24 00:59:14;;;;;;;12.15;8.60;;;3.80;99.90;;;;;;5070475;28;20212;-46
2023/01/24 01:01:40;;;;;;;16.52;9.00;;;3.70;99.90;;;;;;5070980;28;20568;-46
2023/01/24 01:04:05;;;;;;;13.30;9.10;;;3.70;99.90;;;;;;5071079;28;20580;-46
2023/01/24 01:06:31;;;;;;;13.65;8.85;;;3.70;99.90;;;;;;5070577;28;20531;-46
2023/01/24 01:08:57;;;;;;;12.68;8.98;;;3.60;99.90;;;;;;5070741;28;20162;-46
2023/01/24 01:11:23;;;;;;;12.02;7.93;;;3.70;99.90;;;;;;5070741;28;20173;-46
2023/01/24 01:13:48;;;;;;;14.20;8.73;;;3.70;99.90;;;;;;5070868;28;20201;-46
2023/01/24 01:16:18;;;;;;;11.38;8.63;;;3.60;99.90;;;;;;5070921;28;20288;-46
2023/01/24 01:18:46;;;;;;;13.20;8.90;;;3.70;99.90;;;;;;5070913;28;20167;-46
2023/01/24 01:21:17;;;;;;;14.95;8.80;;;3.70;99.90;;;;;;5070644;28;20314;-46
2023/01/24 01:23:43;;;;;;;14.20;9.35;;;3.60;99.90;;;;;;5069340;28;20170;-46
2023/01/24 01:26:14;;;;;;;19.48;9.98;;;3.70;99.90;;;;;;5062289;28;20228;-46
2023/01/24 01:28:39;;;;;;;14.40;9.02;;;3.60;99.90;;;;;;5050769;28;20289;-46
2023/01/24 01:31:05;;;;;;;12.88;8.77;;;3.60;99.90;;;;;;5054758;28;20626;-46
2023/01/24 01:33:31;;;;;;;16.48;10.32;;;3.60;99.90;;;;;;5054385;28;20163;-46
2023/01/24 01:35:56;;;;;;;12.82;8.93;;;3.60;99.90;;;;;;5054143;28;20167;-46
2023/01/24 01:38:25;;;;;;;12.38;9.48;;;3.60;99.90;;;;;;5054227;28;20654;-46
2023/01/24 01:40:50;;;;;;;11.70;7.97;;;3.60;99.90;;;;;;5054378;28;20194;-46
2023/01/24 01:43:19;;;;;;;12.73;8.82;;;3.60;99.90;;;;;;5054166;28;20178;-46
2023/01/24 01:45:49;;;;;;;12.88;8.77;;;3.60;99.90;;;;;;5054084;28;20198;-46
2023/01/24 01:48:37;;;;;;;13.45;9.00;;;3.60;99.90;;;;;;5054005;28;20701;-46
2023/01/24 01:51:33;;;;;;;13.68;8.65;;;3.60;99.90;;;;;;5054546;28;20220;-46
2023/01/24 01:53:58;;;;;;;10.77;6.85;;;3.60;99.90;;;;;;5040763;28;20183;-46
2023/01/24 01:56:38;;;;;;;14.10;9.65;;;3.50;99.90;;;;;;5063244;28;20174;-45
2023/01/24 01:59:14;;;;;;;13.75;9.23;;;3.50;99.90;;;;;;5073557;28;20170;-46
2023/01/24 02:01:41;;;;;;;14.95;9.45;;;3.60;99.90;;;;;;5073771;28;20198;-46
2023/01/24 02:04:14;;;;;;;11.77;8.43;;;3.50;99.90;;;;;;5073609;28;20300;-46
2023/01/24 02:06:50;;;;;;;10.25;7.10;;;3.60;99.90;;;;;;5073702;28;20699;-46
2023/01/24 02:09:20;;;;;;;11.15;8.13;;;3.50;99.90;;;;;;5073665;28;20270;-46
2023/01/24 02:11:46;;;;;;;11.65;8.35;;;3.50;99.90;;;;;;5073563;28;20261;-46
2023/01/24 02:16:59;;;;;;;11.48;8.10;;;3.50;99.90;;;;;;5073821;28;20656;-46
2023/01/24 02:19:36;;;;;;;15.60;9.88;;;3.60;99.90;;;;;;5073235;28;20245;-46
2023/01/24 02:22:20;;;;;;;13.05;9.52;;;3.50;99.90;;;;;;5073640;28;20626;-46
2023/01/24 02:25:03;;;;;;;11.02;8.20;;;3.60;99.90;;;;;;5073390;28;20257;-46
2023/01/24 02:27:29;;;;;;;13.77;9.13;;;3.60;99.90;;;;;;5053112;28;20657;-46
2023/01/24 02:29:55;;;;;;;12.45;8.07;;;3.60;99.90;;;;;;5053262;28;20170;-46
2023/01/24 02:32:21;;;;;;;12.70;8.75;;;3.60;99.90;;;;;;5054309;28;20710;-46
2023/01/24 02:34:47;;;;;;;14.55;7.72;;;3.50;99.90;;;;;;5053218;28;20265;-46
2023/01/24 02:37:13;;;;;;;11.85;8.27;;;3.50;99.90;;;;;;5052857;28;20209;-46
2023/01/24 02:39:55;;;;;;;11.85;8.27;;;3.60;99.90;;;;;;5053112;28;20171;-45
2023/01/24 02:42:26;;;;;;;12.52;8.10;;;3.60;99.90;;;;;;5052725;28;20210;-45
2023/01/24 02:45:00;;;;;;;12.90;8.50;;;3.50;99.90;;;;;;5053363;28;20173;-46
2023/01/24 02:47:32;;;;;;;9.75;6.45;;;3.50;99.90;;;;;;5052987;28;20166;-46
2023/01/24 02:49:59;;;;;;;12.98;8.35;;;3.50;99.90;;;;;;5052979;28;20654;-46
2023/01/24 02:55:08;;;;;;;13.50;8.65;;;3.50;99.90;;;;;;5054255;28;20228;-47
2023/01/24 03:00:18;;;;;;;13.07;8.35;;;3.50;99.90;;;;;;5073265;28;20177;-47
2023/01/24 03:02:44;;;;;;;11.05;7.68;;;3.50;99.90;;;;;;5073181;28;20174;-45
2023/01/24 03:05:10;;;;;;;11.93;7.50;;;3.60;99.90;;;;;;5071595;28;20579;-45
2023/01/24 03:07:44;;;;;;;10.50;7.88;;;3.60;99.90;;;;;;5073015;28;20170;-45
2023/01/24 03:10:11;;;;;;;11.32;8.52;;;3.50;99.90;;;;;;5073083;28;20242;-45
2023/01/24 03:34:45;;;;;;;11.52;7.97;;;3.70;99.90;;;;;;5072946;28;20173;-46
2023/01/24 03:37:11;;;;;;;14.20;9.07;;;3.70;99.90;;;;;;5072446;28;20177;-45
2023/01/24 03:39:58;;;;;;;11.23;7.68;;;3.70;99.90;;;;;;5072140;28;20162;-46
2023/01/24 03:42:26;;;;;;;12.25;7.80;;;3.70;99.90;;;;;;5072222;28;20209;-46
2023/01/24 03:44:52;;;;;;;10.02;7.28;;;3.70;99.90;;;;;;5072486;28;20166;-46
2023/01/24 03:47:17;;;;;;;9.60;6.65;;;3.70;99.90;;;;;;5072283;28;20181;-46
2023/01/24 03:52:27;;;;;;;11.30;7.50;;;3.70;99.90;;;;;;5072360;28;20519;-45
2023/01/24 03:54:54;;;;;;;9.45;6.38;;;3.70;99.90;;;;;;5071533;28;20189;-46
2023/01/24 03:57:20;;;;;;;12.00;7.85;;;3.60;99.90;;;;;;5071796;28;20165;-46
2023/01/24 03:59:45;;;;;;;9.55;7.10;;;3.60;99.90;;;;;;5071994;28;20174;-46
2023/01/24 04:02:11;;;;;;;11.25;7.65;;;3.60;99.90;;;;;;5071550;28;20205;-45
2023/01/24 04:07:20;;;;;;;9.90;7.05;;;3.50;99.90;;;;;;5071951;28;20197;-46
2023/01/24 04:09:46;;;;;;;8.88;6.50;;;3.50;99.90;;;;;;5071973;28;20639;-47
2023/01/24 04:12:11;;;;;;;8.02;6.43;;;3.40;99.90;;;;;;5071685;28;20166;-45
2023/01/24 04:14:37;;;;;;;9.18;6.63;;;3.40;99.90;;;;;;5071871;28;20158;-46
2023/01/24 04:17:03;;;;;;;10.23;6.63;;;3.40;99.90;;;;;;5072118;28;20295;-46
2023/01/24 04:19:28;;;;;;;9.48;6.88;;;3.40;99.90;;;;;;5072132;28;20314;-45
2023/01/24 04:21:57;;;;;;;9.20;6.72;;;3.40;99.90;;;;;;5070438;28;20673;-46
2023/01/24 04:24:22;;;;;;;9.38;6.93;;;3.40;99.90;;;;;;5071999;28;20195;-46
2023/01/24 04:26:48;;;;;;;8.27;6.43;;;3.40;99.90;;;;;;5054199;28;20642;-46
2023/01/24 04:29:13;;;;;;;10.82;7.72;;;3.40;99.90;;;;;;5051759;28;20163;-46
2023/01/24 04:31:39;;;;;;;9.43;6.85;;;3.40;99.90;;;;;;5051713;28;20300;-47
2023/01/24 04:34:05;;;;;;;9.27;6.75;;;3.50;99.90;;;;;;5051989;28;20174;-46
2023/01/24 04:36:30;;;;;;;10.38;6.60;;;3.40;99.90;;;;;;5052020;28;20163;-46
2023/01/24 04:38:56;;;;;;;11.10;7.45;;;3.50;99.90;;;;;;5051555;28;20171;-46
2023/01/24 04:41:21;;;;;;;8.70;6.60;;;3.40;99.90;;;;;;5051466;28;20210;-46
2023/01/24 04:43:47;;;;;;;10.00;7.32;;;3.40;99.90;;;;;;5051478;28;20657;-46
2023/01/24 04:46:12;;;;;;;8.85;6.53;;;3.40;99.90;;;;;;5051601;28;20171;-46
2023/01/24 04:48:38;;;;;;;10.77;7.93;;;3.40;99.90;;;;;;5051440;28;20536;-46
2023/01/24 04:51:04;;;;;;;11.85;7.25;;;3.40;99.90;;;;;;5051806;28;20182;-46
2023/01/24 04:53:30;;;;;;;10.98;7.20;;;6.50;99.90;;;;;;5051793;28;20166;-46
2023/01/24 04:56:01;;;;;;;10.15;7.00;;;3.40;99.90;;;;;;5052315;28;20238;-45
2023/01/24 04:58:27;;;;;;;8.13;6.68;;;3.40;99.90;;;;;;5065185;28;20212;-45
2023/01/24 05:00:53;;;;;;;8.77;6.32;;;3.50;99.90;;;;;;5071230;28;20236;-46
2023/01/24 05:03:19;;;;;;;10.88;7.32;;;3.40;99.90;;;;;;5071071;28;20750;-46
2023/01/24 05:05:52;;;;;;;12.30;8.90;;;3.50;99.90;;;;;;5074466;28;20177;-46
2023/01/24 05:08:18;;;;;;;10.23;7.00;;;3.40;99.90;;;;;;5075051;28;20193;-45
2023/01/24 05:10:43;;;;;;;10.52;6.60;;;3.40;99.90;;;;;;5075252;28;20707;-46
2023/01/24 05:13:09;;;;;;;9.50;6.57;;;3.30;99.90;;;;;;5074749;28;20590;-45
2023/01/24 05:15:35;;;;;;;10.25;6.70;;;3.30;99.90;;;;;;5075388;28;20173;-45
2023/01/24 05:18:01;;;;;;;9.30;6.35;;;3.40;99.90;;;;;;5075386;28;20253;-46
2023/01/24 05:20:27;;;;;;;10.13;6.50;;;3.40;99.90;;;;;;5074827;28;20177;-46
2023/01/24 05:22:56;;;;;;;9.23;6.55;;;3.40;99.90;;;;;;5074942;28;20244;-46
2023/01/24 05:25:22;;;;;;;8.27;6.20;;;3.40;99.90;;;;;;5067175;28;20163;-46
2023/01/24 05:27:47;;;;;;;10.23;7.30;;;3.30;99.90;;;;;;5054904;28;20646;-46
2023/01/24 05:30:13;;;;;;;9.88;6.95;;;3.30;99.90;;;;;;5054840;28;20652;-46
2023/01/24 05:32:39;;;;;;;10.57;6.82;;;3.40;99.90;;;;;;5054811;28;20594;-46
2023/01/24 05:35:05;;;;;;;9.02;6.53;;;3.40;99.90;;;;;;5054666;28;20167;-46
2023/01/24 05:37:31;;;;;;;15.15;8.75;;;3.40;99.90;;;;;;5055091;28;20205;-46
2023/01/24 05:39:56;;;;;;;8.25;6.10;;;3.40;99.90;;;;;;5054589;28;20576;-46
2023/01/24 05:42:22;;;;;;;15.70;8.77;;;3.40;99.90;;;;;;5060175;28;20216;-46
2023/01/24 05:44:47;;;;;;;9.05;6.53;;;3.30;99.90;;;;;;5062656;28;20178;-46
2023/01/24 05:47:13;;;;;;;10.20;6.90;;;3.30;99.90;;;;;;5054406;28;20181;-46
2023/01/24 05:49:38;;;;;;;12.52;7.93;;;3.20;99.90;;;;;;5061806;28;20172;-46
2023/01/24 05:52:04;;;;;;;9.95;6.15;;;3.20;99.90;;;;;;5058553;28;20252;-46
2023/01/24 05:54:29;;;;;;;10.10;7.20;;;3.20;99.90;;;;;;5054589;28;20537;-46
2023/01/24 05:56:55;;;;;;;10.05;7.35;;;3.30;99.90;;;;;;5054150;28;20593;-46
2023/01/24 05:59:21;;;;;;;9.23;6.65;;;3.30;99.90;;;;;;5054346;28;20578;-46
2023/01/24 06:01:46;;;;;;;10.57;7.43;;;3.30;99.90;;;;;;5054226;28;20206;-46
2023/01/24 06:04:12;;;;;;;9.07;6.88;;;3.30;99.90;;;;;;5068078;28;20652;-46
2023/01/24 06:06:38;;;;;;;10.40;6.63;;;3.30;99.90;;;;;;5074109;28;20589;-46
2023/01/24 06:09:03;;;;;;;9.18;6.85;;;3.30;99.90;;;;;;5068291;28;20217;-47
2023/01/24 06:11:29;;;;;;;8.57;6.35;;;3.30;99.90;;;;;;5073514;28;20203;-46
2023/01/24 06:13:55;;;;;;;8.05;6.22;;;3.20;99.90;;;;;;5054292;28;20174;-47
2023/01/24 06:16:23;;;;;;;8.93;6.22;;;3.30;99.90;;;;;;5059672;28;20529;-47
2023/01/24 06:18:50;;;;;;;9.27;7.07;;;3.30;99.90;;;;;;5054248;28;20606;-46
2023/01/24 06:21:45;;;;;;;10.65;6.82;;;3.40;99.90;;;;;;5053852;28;20198;-46
2023/01/24 06:24:19;;;;;;;10.30;6.78;;;3.30;99.90;;;;;;5065115;28;20171;-48
2023/01/24 06:26:46;;;;;;;10.63;6.88;;;3.30;99.90;;;;;;5061101;28;20209;-46
2023/01/24 06:29:13;;;;;;;8.63;6.20;;;3.30;99.90;;;;;;5057311;28;20275;-44
2023/01/24 06:31:59;;;;;;;8.95;6.53;;;3.40;99.90;;;;;;5073229;28;20247;-44
2023/01/24 06:34:46;;;;;;;10.10;6.82;;;3.30;99.90;;;;;;5073178;28;20174;-44
2023/01/24 06:37:17;;;;;;;9.70;7.03;;;3.30;99.90;;;;;;5073038;28;20170;-44
2023/01/24 06:39:50;;;;;;;11.18;7.40;;;3.30;99.90;;;;;;5073010;28;20216;-44
2023/01/24 06:42:19;;;;;;;11.75;7.53;;;3.30;99.90;;;;;;5073014;28;20308;-44
2023/01/24 06:44:45;;;;;;;12.48;6.72;;;3.30;99.90;;;;;;5073031;28;20245;-44
2023/01/24 06:47:11;;;;;;;14.10;8.18;;;3.30;99.90;;;;;;5072835;28;20196;-44
2023/01/24 06:49:38;;;;;;;9.25;6.88;;;3.40;99.90;;;;;;5072925;28;20713;-44
2023/01/24 06:52:04;;;;;;;9.68;6.72;;;3.40;99.90;;;;;;5073060;28;20166;-44
2023/01/24 06:54:30;;;;;;;10.20;6.97;;;3.40;99.90;;;;;;5072918;28;20166;-45
2023/01/24 06:56:56;;;;;;;9.40;6.80;;;3.40;99.90;;;;;;5072652;28;20245;-46
2023/01/24 06:59:22;;;;;;;12.55;8.15;;;3.30;99.90;;;;;;5066644;28;20250;-46
2023/01/24 07:01:51;;;;;;;10.73;7.20;;;3.40;99.90;;;;;;5052540;28;20681;-46
2023/01/24 07:04:17;;;;;;;13.75;8.07;;;3.50;99.90;;;;;;5052440;28;20218;-46
2023/01/24 07:06:43;;;;;;;8.90;6.50;;;3.40;99.90;;;;;;5052620;28;20166;-45
2023/01/24 07:09:08;;;;;;;11.55;6.93;;;3.40;99.90;;;;;;5069309;28;20170;-46
2023/01/24 07:11:34;;;;;;;12.27;6.90;;;3.40;99.90;;;;;;5072987;28;20166;-46
2023/01/24 07:14:00;;;;;;;8.88;6.35;;;3.40;99.90;;;;;;5073346;28;20193;-46
2023/01/24 07:16:25;;;;;;;18.85;9.25;;;3.40;99.90;;;;;;5072631;28;20249;-46
2023/01/24 07:18:51;;;;;;;17.27;8.50;;;3.40;99.90;;;;;;5072610;28;20199;-46
2023/01/24 07:21:17;;;;;;;11.82;7.65;;;3.50;99.90;;;;;;5072874;28;20216;-46
2023/01/24 07:23:46;;;;;;;10.40;6.20;;;3.50;99.90;;;;;;5072714;28;20158;-47
2023/01/24 07:26:13;;;;;;;9.07;6.15;;;3.50;99.90;;;;;;5072731;28;20173;-47
2023/01/24 07:28:39;;;;;;;7.97;5.78;;;3.40;99.90;;;;;;5072813;28;20197;-47
2023/01/24 07:31:05;;;;;;;8.70;6.05;;;3.50;99.90;;;;;;5052780;28;20206;-47
2023/01/24 07:33:30;;;;;;;8.57;5.93;;;3.40;99.90;;;;;;5052978;28;20170;-47
2023/01/24 07:35:56;;;;;;;9.32;6.57;;;3.40;99.90;;;;;;5052531;28;20162;-47
2023/01/24 07:38:21;;;;;;;8.57;6.03;;;3.40;99.90;;;;;;5052461;28;20174;-46
2023/01/24 07:40:47;;;;;;;9.15;6.75;;;3.40;99.90;;;;;;5052297;28;20198;-47
2023/01/24 07:43:13;;;;;;;8.50;6.10;;;3.40;99.90;;;;;;5052359;28;20202;-47
2023/01/24 07:45:39;;;;;;;8.75;6.18;;;3.40;99.90;;;;;;5052503;28;20202;-47
2023/01/24 07:48:09;;;;;;;8.38;6.03;;;3.40;99.90;;;;;;5052284;28;20693;-46
2023/01/24 07:50:35;;;;;;;9.90;6.50;;;3.50;99.90;;;;;;5052492;28;20258;-46
2023/01/24 07:53:01;;;;;;;10.55;7.03;;;3.40;99.90;;;;;;5052587;28;20249;-46
2023/01/24 07:55:27;;;;;;;10.27;6.80;;;3.40;99.90;;;;;;5052162;28;20171;-46
2023/01/24 07:57:58;;;;;;;11.60;6.97;;;3.40;99.90;;;;;;5067559;28;20179;-46
2023/01/24 08:00:24;;;;;;;9.88;6.22;;;3.50;99.90;;;;;;5067475;28;20268;-46
2023/01/24 08:02:50;;;;;;;9.95;7.03;;;3.50;99.90;;;;;;5071160;28;20264;-46
2023/01/24 08:05:15;;;;;;;9.38;6.88;;;3.60;99.90;;;;;;5071869;28;20214;-46
2023/01/24 08:07:41;;;;;;;10.50;7.97;;;3.60;99.90;;;;;;5072020;28;20177;-46
2023/01/24 08:10:07;;;;;;;10.13;6.90;;;3.60;99.90;;;;;;5071889;28;20162;-46
2023/01/24 08:12:32;;;;;;;9.77;7.22;;;3.50;99.90;;;;;;5072308;28;20289;-46
2023/01/24 08:14:58;;;;;;;9.05;6.45;;;3.50;99.90;;;;;;5072397;28;20245;-46
2023/01/24 08:17:24;;;;;;;10.77;7.38;;;3.50;99.90;;;;;;5071889;28;20162;-46
2023/01/24 08:19:49;;;;;;;9.32;6.28;;;3.40;99.90;;;;;;5071824;28;20177;-46
2023/01/24 08:22:15;;;;;;;10.88;6.68;;;3.40;99.90;;;;;;5071676;28;20335;-46
2023/01/24 08:24:40;;;;;;;8.20;6.45;;;3.50;99.90;;;;;;5071762;28;20653;-46
2023/01/24 08:27:06;;;;;;;11.90;7.75;;;3.40;99.90;;;;;;5071751;28;20530;-46
2023/01/24 08:29:31;;;;;;;11.57;7.72;;;3.40;99.90;;;;;;5063161;28;20646;-46
2023/01/24 08:31:58;;;;;;;12.57;8.35;;;3.40;99.90;;;;;;5051885;28;20175;-46
2023/01/24 08:34:24;;;;;;;21.90;12.75;;;3.40;99.90;;;;;;5051618;28;20653;-46
2023/01/24 08:36:49;;;;;;;15.60;8.20;;;3.50;99.90;;;;;;5051647;28;20174;-46
2023/01/24 08:39:15;;;;;;;29.73;17.83;;;3.40;99.90;;;;;;5050718;28;20261;-46
2023/01/24 08:41:43;;;;;;;11.98;8.07;;;3.50;99.90;;;;;;5051606;28;20214;-46
2023/01/24 08:44:08;;;;;;;26.70;13.65;;;3.50;99.90;;;;;;5051737;28;20169;-46
2023/01/24 08:46:34;;;;;;;32.67;15.90;;;3.40;99.90;;;;;;5051419;28;20171;-46
2023/01/24 08:49:01;;;;;;;58.17;25.70;;;3.50;99.90;;;;;;5051856;28;20226;-46
2023/01/24 08:51:27;;;;;;;15.88;8.25;;;3.50;99.90;;;;;;5051369;28;20219;-47
2023/01/24 08:53:53;;;;;;;23.48;11.48;;;3.60;99.90;;;;;;5051410;28;20258;-46
2023/01/24 08:56:18;;;;;;;28.00;13.82;;;3.50;99.90;;;;;;5051382;28;20171;-46
2023/01/24 08:58:44;;;;;;;18.45;10.95;;;3.60;99.90;;;;;;5053160;28;20171;-46
2023/01/24 09:01:10;;;;;;;14.80;7.93;;;3.60;99.90;;;;;;5071345;28;20202;-46
2023/01/24 09:03:36;;;;;;;9.63;6.70;;;3.60;99.90;;;;;;5071074;28;20218;-48
2023/01/24 09:06:02;;;;;;;16.45;9.57;;;3.50;99.90;;;;;;5071696;28;20188;-47
2023/01/24 09:08:28;;;;;;;13.98;7.53;;;3.60;99.90;;;;;;5071895;28;20174;-47
2023/01/24 09:10:57;;;;;;;14.82;8.82;;;3.70;99.90;;;;;;5071292;28;20170;-47
2023/01/24 09:13:23;;;;;;;35.17;17.52;;;3.70;99.90;;;;;;5071192;28;20178;-47
2023/01/24 09:15:49;;;;;;;21.75;12.77;;;3.70;99.90;;;;;;5071289;28;20173;-48
2023/01/24 09:18:14;;;;;;;32.47;20.25;;;3.80;99.90;;;;;;5071160;28;20212;-47
2023/01/24 09:20:40;;;;;;;10.18;7.80;;;3.70;99.90;;;;;;5071059;28;20180;-47
2023/01/24 09:23:14;;;;;;;18.10;11.05;;;3.80;99.90;;;;;;5071136;28;20178;-47
2023/01/24 09:25:41;;;;;;;15.63;10.52;;;3.80;99.90;;;;;;5071410;28;20166;-47
2023/01/24 09:28:07;;;;;;;8.52;6.03;;;3.80;99.90;;;;;;5071383;28;20185;-46
2023/01/24 09:30:33;;;;;;;8.60;6.15;;;3.80;99.90;;;;;;5068772;28;20175;-46
2023/01/24 09:33:04;;;;;;;12.00;8.18;;;3.80;99.90;;;;;;5071645;28;20197;-46
2023/01/24 09:35:29;;;;;;;20.35;10.57;;;6.30;99.90;;;;;;5071765;28;20170;-47
2023/01/24 09:37:55;;;;;;;47.70;19.73;;;4.00;99.90;;;;;;5071024;28;20646;-46
2023/01/24 09:40:26;;;;;;;23.20;12.00;;;3.90;99.90;;;;;;5071097;28;20170;-46
2023/01/24 09:43:04;;;;;;;26.50;13.95;;;3.80;99.90;;;;;;5069948;28;20174;-46
2023/01/24 09:45:35;;;;;;;46.20;24.05;;;3.80;99.90;;;;;;5071344;28;20180;-46
2023/01/24 09:48:04;;;;;;;26.08;15.13;;;4.00;99.90;;;;;;5070883;28;20697;-47
2023/01/24 09:50:48;;;;;;;18.30;10.65;;;4.00;99.90;;;;;;5053040;28;20178;-46
2023/01/24 09:53:23;;;;;;;18.13;11.90;;;4.10;99.90;;;;;;5054432;28;20660;-47
2023/01/24 09:55:49;;;;;;;13.70;10.10;;;4.10;99.90;;;;;;5054493;28;20182;-46
2023/01/24 09:58:33;;;;;;;7.63;6.22;;;4.10;99.90;;;;;;5054449;28;20170;-46
2023/01/24 10:01:01;;;;;;;10.30;6.40;;;4.00;99.90;;;;;;5054645;28;20264;-46
2023/01/24 10:03:27;;;;;;;7.57;5.97;;;4.00;99.90;;;;;;5054268;28;20264;-46
2023/01/24 10:05:56;;;;;;;8.98;6.57;;;4.00;99.90;;;;;;5069546;28;20266;-46
2023/01/24 10:08:33;;;;;;;6.35;5.20;;;4.00;99.90;;;;;;5054256;28;20173;-46
2023/01/24 10:11:33;;;;;;;7.82;5.53;;;3.90;99.90;;;;;;5054713;28;20177;-46
2023/01/24 10:14:16;;;;;;;13.13;8.27;;;4.00;99.90;;;;;;5054388;28;20175;-46
2023/01/24 10:16:57;;;;;;;9.07;6.80;;;4.00;99.90;;;;;;5053937;28;20739;-46
2023/01/24 10:19:34;;;;;;;8.13;5.85;;;4.00;99.90;;;;;;5054052;28;20179;-46
2023/01/24 10:22:12;;;;;;;7.70;6.22;;;4.00;99.90;;;;;;5054252;28;20201;-46
2023/01/24 10:24:41;;;;;;;10.23;6.18;;;4.00;99.90;;;;;;5054020;28;20245;-46
2023/01/24 10:27:28;;;;;;;21.65;13.70;;;4.00;99.90;;;;;;5053965;28;20228;-46
2023/01/24 10:29:59;;;;;;;6.53;4.95;;;4.10;99.90;;;;;;5073752;28;20170;-46
2023/01/24 10:32:35;;;;;;;16.23;11.77;;;4.00;99.90;;;;;;5073707;28;20169;-46
2023/01/24 10:35:19;;;;;;;9.25;6.15;;;4.00;99.90;;;;;;5074180;28;20232;-47
2023/01/24 10:37:54;;;;;;;6.28;5.30;;;4.00;99.90;;;;;;5073545;28;20173;-46
2023/01/24 10:40:20;;;;;;;7.05;5.65;;;3.90;99.90;;;;;;5073553;28;20621;-46
2023/01/24 10:42:45;;;;;;;9.00;6.20;;;3.90;99.90;;;;;;5073681;28;20220;-46
2023/01/24 10:45:42;;;;;;;6.95;5.22;;;4.00;99.90;;;;;;5073478;28;20257;-46
2023/01/24 10:48:44;;;;;;;6.55;4.85;;;3.90;99.90;;;;;;5065698;28;20573;-46
2023/01/24 10:51:15;;;;;;;7.60;5.70;;;4.00;99.90;;;;;;5053331;28;20196;-46
2023/01/24 10:53:41;;;;;;;7.20;6.10;;;4.00;99.90;;;;;;5053357;28;20165;-46
2023/01/24 10:56:08;;;;;;;12.52;6.15;;;4.00;99.90;;;;;;5053294;28;20175;-46
2023/01/24 10:58:55;;;;;;;12.88;5.75;;;4.00;99.90;;;;;;5053499;28;20178;-46
2023/01/24 11:01:32;;;;;;;6.38;5.50;;;4.10;99.90;;;;;;5068306;28;20202;-46
2023/01/24 11:03:58;;;;;;;9.18;5.85;;;4.20;99.90;;;;;;5053316;28;20293;-47
2023/01/24 11:06:38;;;;;;;7.57;5.38;;;4.20;99.90;;;;;;5053371;28;20266;-46
2023/01/24 11:09:12;;;;;;;6.88;5.10;;;4.20;99.90;;;;;;5070174;28;20259;-46
2023/01/24 11:11:45;;;;;;;6.95;5.55;;;4.20;99.90;;;;;;5072945;28;20164;-47
2023/01/24 11:14:26;;;;;;;7.50;5.20;;;4.20;99.90;;;;;;5073216;28;20173;-46
2023/01/24 11:16:55;;;;;;;6.60;5.15;;;4.10;99.90;;;;;;5072855;28;20207;-46
2023/01/24 11:19:30;;;;;;;14.45;5.72;;;4.10;99.90;;;;;;5072666;28;20257;-46
2023/01/24 11:22:19;;;;;;;8.73;5.47;;;4.30;99.90;;;;;;5072691;28;20263;-46
2023/01/24 11:24:45;;;;;;;8.43;5.65;;;4.40;99.90;;;;;;5072689;28;20170;-46
2023/01/24 11:27:19;;;;;;;7.20;5.53;;;4.30;99.90;;;;;;5072918;28;20197;-47
2023/01/24 11:30:03;;;;;;;6.10;5.10;;;4.20;99.90;;;;;;5072645;28;20168;-47
2023/01/24 11:33:12;;;;;;;7.90;5.22;;;4.10;99.90;;;;;;5072788;28;20665;-47
2023/01/24 11:35:45;;;;;;;7.95;4.78;;;4.10;99.90;;;;;;5010925;28;20182;-47
2023/01/24 11:38:24;;;;;;;7.32;5.35;;;4.10;99.90;;;;;;5055964;28;20639;-47
2023/01/24 11:41:04;;;;;;;7.80;5.90;;;4.20;99.90;;;;;;5052655;28;20202;-47
2023/01/24 11:43:52;;;;;;;7.65;5.20;;;4.30;99.90;;;;;;5052748;28;20170;-47
2023/01/24 11:46:42;;;;;;;6.75;5.40;;;4.20;99.90;;;;;;5052287;28;20166;-47
2023/01/24 11:49:31;;;;;;;9.98;6.47;;;4.10;99.90;;;;;;5052365;28;20174;-46
2023/01/24 11:52:29;;;;;;;6.07;5.30;;;4.20;99.90;;;;;;5052509;28;20170;-46
2023/01/24 11:55:36;;;;;;;8.82;5.25;;;4.40;99.90;;;;;;5052189;28;20162;-46
2023/01/24 11:58:47;;;;;;;6.07;5.05;;;4.20;99.90;;;;;;5031521;28;20171;-46
2023/01/24 12:01:31;;;;;;;6.45;5.28;;;4.20;99.90;;;;;;4990763;28;20220;-46
2023/01/24 12:04:27;;;;;;;7.70;5.60;;;4.30;99.90;;;;;;5046360;28;20218;-46
2023/01/24 12:07:21;;;;;;;9.38;6.78;;;4.40;99.90;;;;;;5043672;28;20178;-47
2023/01/24 12:10:18;;;;;;;7.20;5.63;;;4.30;99.90;;;;;;5051859;28;20246;-46
2023/01/24 12:12:50;;;;;;;7.55;5.25;;;4.40;99.90;;;;;;5051535;28;20167;-46
2023/01/24 12:16:03;;;;;;;7.05;5.53;;;4.30;99.90;;;;;;5051384;28;20223;-46
2023/01/24 12:18:40;;;;;;;6.28;5.07;;;4.30;99.90;;;;;;5006059;28;20596;-47
2023/01/24 12:21:08;;;;;;;6.85;5.25;;;4.30;99.90;;;;;;5051662;28;20201;-46
2023/01/24 12:23:56;;;;;;;7.40;5.47;;;4.20;99.90;;;;;;5051754;28;20163;-46
2023/01/24 12:26:32;;;;;;;9.32;5.03;;;4.10;99.90;;;;;;5051648;28;20677;-46
2023/01/24 12:29:17;;;;;;;7.85;6.53;;;4.10;99.90;;;;;;5051873;28;20170;-46
2023/01/24 12:31:49;;;;;;;10.23;5.80;;;4.20;99.90;;;;;;5051630;28;20265;-47
2023/01/24 12:34:32;;;;;;;7.68;5.22;;;4.30;99.90;;;;;;5052786;28;20170;-46
2023/01/24 12:37:10;;;;;;;9.98;5.55;;;4.40;99.90;;;;;;5051962;28;20246;-47
2023/01/24 12:39:46;;;;;;;31.00;7.25;;;4.40;99.90;;;;;;5051551;28;20171;-46
2023/01/24 12:42:21;;;;;;;44.00;11.75;;;4.40;99.90;;;;;;5051399;28;20224;-46
2023/01/24 12:44:56;;;;;;;17.38;7.30;;;4.40;99.90;;;;;;5051508;28;20241;-46
2023/01/24 12:47:44;;;;;;;8.75;7.43;;;4.50;99.90;;;;;;5051528;28;20535;-46
2023/01/24 12:50:36;;;;;;;7.50;5.82;;;4.60;99.90;;;;;;5051651;28;20171;-47
2023/01/24 12:53:09;;;;;;;8.95;6.70;;;4.50;99.90;;;;;;5050998;28;20177;-46
2023/01/24 12:56:05;;;;;;;7.45;6.00;;;4.50;99.90;;;;;;5051322;28;20521;-46
2023/01/24 12:58:40;;;;;;;10.75;6.20;;;4.50;99.90;;;;;;5051515;28;20171;-46
2023/01/24 13:01:21;;;;;;;6.13;4.93;;;4.60;99.90;;;;;;5051080;28;20610;-46
2023/01/24 13:04:14;;;;;;;14.70;6.13;;;4.60;99.90;;;;;;5063115;28;20681;-46
2023/01/24 13:06:45;;;;;;;11.75;6.53;;;4.70;99.90;;;;;;5070857;28;20166;-46
2023/01/24 13:09:26;;;;;;;18.60;6.13;;;4.60;99.90;;;;;;5071053;28;20170;-46
2023/01/24 13:11:55;;;;;;;17.00;7.05;;;4.60;99.90;;;;;;5070964;28;20174;-46
2023/01/24 13:14:36;;;;;;;10.57;7.10;;;4.60;99.90;;;;;;5071052;28;20166;-46
2023/01/24 13:17:02;;;;;;;12.82;7.15;;;4.60;99.90;;;;;;5071028;28;20166;-46
2023/01/24 13:19:43;;;;;;;20.48;7.40;;;4.60;99.90;;;;;;5071584;28;20166;-46
2023/01/24 13:22:45;;;;;;;23.55;7.85;;;4.60;99.90;;;;;;5070674;28;20201;-46
2023/01/24 13:25:23;;;;;;;9.35;7.25;;;4.60;99.90;;;;;;5071422;28;20220;-47
2023/01/24 13:28:05;;;;;;;21.20;7.60;;;4.60;99.90;;;;;;5054752;28;20200;-47
2023/01/24 13:30:48;;;;;;;8.80;6.80;;;4.60;99.90;;;;;;5055074;28;20208;-46
2023/01/24 13:33:18;;;;;;;17.45;7.22;;;4.60;99.90;;;;;;5054687;28;20174;-47
2023/01/24 13:35:52;;;;;;;18.63;7.40;;;4.60;99.90;;;;;;5054756;28;20284;-47
2023/01/24 13:38:25;;;;;;;9.73;7.47;;;4.60;99.90;;;;;;5064191;28;20205;-47
2023/01/24 13:41:06;;;;;;;15.43;8.00;;;4.70;99.90;;;;;;5070350;28;20514;-48
2023/01/24 13:43:58;;;;;;;15.20;7.07;;;4.70;99.90;;;;;;5072643;28;20178;-48
2023/01/24 13:46:43;;;;;;;9.73;7.95;;;4.70;99.90;;;;;;5074760;28;20189;-48